Nevele, Belgium
Current Conditions -  °F | °C
As of 6:25 AM on Thursday 27 Nov 2014 (Local Time) from EHFS Reporting Station
Haze Haze  
Wind Chill: 50°   Ceiling: Unl
Heat Index: 50°   Visibility: 0.62mi
Dew Point: 50°   Wind: 10mph
Humidity: 100%   Direction: 150°SSE
Pressure: 29.71"   Gusts: NA
Location:  51.04°N, 3.55°E
Report Text: EHFS 270525Z AUTO 15009KT 1000 BR OVC000/// 10/10 Q1006
Loading
Personal Weather Stations






























Interactive Weather Map New forecast layout! Learn more

10-Day Weather Forecast

Advertisements
Track Severe Weather on mobile